Time;durP1;ratioP1;P1;durP2;ratioP2;P2;SDS_P1;SDS_P2;PMS_P1;PMS_P2;Temp;Humidity;BMP_temperature;BMP_pressure;BME280_temperature;BME280_humidity;BME280_pressure;Samples;Min_cycle;Max_cycle;Signal;HPM_P1;HPM_P2
2023/03/24 00:01:51;;;;;;;4.22;2.08;;;;;;;;;;4957746;28;20038;-85
2023/03/24 00:04:17;;;;;;;6.50;2.20;;;;;;;;;;4974565;28;20045;-86
2023/03/24 00:06:43;;;;;;;6.15;2.33;;;;;;;;;;4975581;28;20094;-85
2023/03/24 00:09:10;;;;;;;4.75;2.47;;;;;;;;;;4975269;28;20031;-87
2023/03/24 00:11:35;;;;;;;4.20;1.95;;;;;;;;;;4950415;28;20035;-84
2023/03/24 00:14:02;;;;;;;5.10;2.00;;;;;;;;;;4957508;28;20034;-85
2023/03/24 00:16:28;;;;;;;5.30;2.15;;;;;;;;;;4978875;28;20057;-87
2023/03/24 00:18:54;;;;;;;5.25;2.20;;;;;;;;;;4978164;28;20037;-84
2023/03/24 00:21:23;;;;;;;3.40;2.05;;;;;;;;;;4974895;28;20042;-86
2023/03/24 00:23:50;;;;;;;3.15;1.90;;;;;;;;;;4961663;28;20035;-84
2023/03/24 00:26:16;;;;;;;4.93;1.98;;;;;;;;;;4979329;28;20035;-86
2023/03/24 00:28:44;;;;;;;3.85;2.10;;;;;;;;;;4978960;28;20035;-86
2023/03/24 00:31:13;;;;;;;3.40;1.98;;;;;;;;;;4974203;28;20030;-85
2023/03/24 00:33:40;;;;;;;5.55;2.08;;;;;;;;;;4961564;28;20049;-85
2023/03/24 00:36:10;;;;;;;3.63;1.90;;;;;;;;;;4945152;28;20039;-85
2023/03/24 00:38:37;;;;;;;2.78;1.90;;;;;;;;;;4961044;28;20033;-85
2023/03/24 00:41:06;;;;;;;4.22;2.20;;;;;;;;;;4970533;28;20373;-83
2023/03/24 00:43:33;;;;;;;3.50;1.70;;;;;;;;;;4964004;28;20034;-83
2023/03/24 00:46:04;;;;;;;4.65;2.08;;;;;;;;;;4965494;28;20066;-86
2023/03/24 00:48:33;;;;;;;2.95;1.95;;;;;;;;;;4973330;28;20385;-86
2023/03/24 00:51:02;;;;;;;3.10;2.00;;;;;;;;;;4965294;28;20042;-86
2023/03/24 00:53:30;;;;;;;3.33;1.98;;;;;;;;;;4983807;28;20038;-81
2023/03/24 00:55:57;;;;;;;4.32;2.08;;;;;;;;;;4961375;28;20046;-85
2023/03/24 00:58:24;;;;;;;5.18;1.90;;;;;;;;;;4956454;28;20041;-86
2023/03/24 01:00:53;;;;;;;3.75;1.83;;;;;;;;;;4976860;28;20034;-84
2023/03/24 01:03:26;;;;;;;4.78;1.80;;;;;;;;;;4975913;28;20039;-85
2023/03/24 01:05:56;;;;;;;3.00;2.00;;;;;;;;;;4949828;28;20491;-85
2023/03/24 01:08:24;;;;;;;4.00;2.00;;;;;;;;;;4978456;28;20037;-87
2023/03/24 01:10:51;;;;;;;6.32;2.10;;;;;;;;;;4975783;28;20622;-86
2023/03/24 01:13:27;;;;;;;4.15;2.00;;;;;;;;;;4960313;28;20454;-87
2023/03/24 01:15:53;;;;;;;3.20;2.00;;;;;;;;;;4978540;28;20034;-86
2023/03/24 01:18:19;;;;;;;4.28;2.10;;;;;;;;;;4978087;28;20035;-84
2023/03/24 01:20:47;;;;;;;2.80;2.00;;;;;;;;;;4976528;28;20511;-86
2023/03/24 01:23:16;;;;;;;5.03;2.05;;;;;;;;;;4976545;28;20042;-85
2023/03/24 01:25:44;;;;;;;4.97;2.25;;;;;;;;;;4978230;28;20046;-85
2023/03/24 01:28:11;;;;;;;3.80;2.10;;;;;;;;;;4976413;28;20070;-85
2023/03/24 01:30:38;;;;;;;4.40;2.15;;;;;;;;;;4975455;28;20415;-87
2023/03/24 01:33:04;;;;;;;4.05;2.20;;;;;;;;;;4960707;28;20130;-85
2023/03/24 01:35:30;;;;;;;5.40;2.13;;;;;;;;;;4949948;28;20062;-84
2023/03/24 01:37:57;;;;;;;6.68;2.10;;;;;;;;;;4976030;28;20058;-85
2023/03/24 01:40:26;;;;;;;5.13;2.05;;;;;;;;;;4944908;28;20073;-85
2023/03/24 01:42:51;;;;;;;2.85;2.08;;;;;;;;;;4960824;28;20049;-84
2023/03/24 01:45:39;;;;;;;5.72;2.30;;;;;;;;;;4985442;28;20133;-85
2023/03/24 01:48:06;;;;;;;4.88;2.20;;;;;;;;;;4958396;28;20043;-85
2023/03/24 01:50:32;;;;;;;4.20;2.13;;;;;;;;;;4975413;28;20039;-85
2023/03/24 01:52:58;;;;;;;5.15;2.40;;;;;;;;;;4976272;28;20122;-85
2023/03/24 01:55:25;;;;;;;3.75;2.40;;;;;;;;;;4974785;28;20035;-87
2023/03/24 01:57:56;;;;;;;8.30;2.50;;;;;;;;;;4970440;28;20043;-86
2023/03/24 02:00:26;;;;;;;4.82;2.30;;;;;;;;;;4958363;28;20603;-84
2023/03/24 02:03:22;;;;;;;4.60;2.45;;;;;;;;;;4944334;28;20105;-84
2023/03/24 02:05:56;;;;;;;3.88;2.30;;;;;;;;;;4957405;28;20030;-85
2023/03/24 02:08:47;;;;;;;3.65;2.22;;;;;;;;;;4986245;28;20042;-85
2023/03/24 02:11:13;;;;;;;4.63;2.35;;;;;;;;;;4975009;28;20034;-86
2023/03/24 02:13:47;;;;;;;9.00;2.60;;;;;;;;;;4959720;28;20515;-87
2023/03/24 02:16:22;;;;;;;5.55;2.50;;;;;;;;;;4975590;28;20047;-86
2023/03/24 02:19:03;;;;;;;3.47;2.40;;;;;;;;;;4958687;28;20034;-85
2023/03/24 02:22:08;;;;;;;4.30;2.38;;;;;;;;;;4958699;28;20038;-86
2023/03/24 02:25:27;;;;;;;3.63;2.65;;;;;;;;;;4976827;28;20122;-85
2023/03/24 02:28:14;;;;;;;6.90;2.70;;;;;;;;;;4916908;29;20143;-85
2023/03/24 02:30:55;;;;;;;5.20;2.30;;;;;;;;;;4945230;28;20161;-85
2023/03/24 02:33:51;;;;;;;6.55;2.78;;;;;;;;;;4971434;28;20035;-86
2023/03/24 02:36:35;;;;;;;4.03;2.53;;;;;;;;;;4959498;28;20059;-85
2023/03/24 02:39:26;;;;;;;4.97;2.65;;;;;;;;;;4958738;28;20058;-83
2023/03/24 02:42:30;;;;;;;3.55;2.40;;;;;;;;;;4960135;28;20571;-84
2023/03/24 02:45:24;;;;;;;4.70;2.42;;;;;;;;;;4965922;28;20053;-85
2023/03/24 02:48:15;;;;;;;8.13;2.83;;;;;;;;;;4958810;28;20039;-86
2023/03/24 02:51:07;;;;;;;3.80;2.47;;;;;;;;;;4957486;28;20563;-87
2023/03/24 02:53:45;;;;;;;3.83;2.42;;;;;;;;;;4956821;28;20700;-85
2023/03/24 02:56:32;;;;;;;4.53;2.30;;;;;;;;;;4955292;28;20031;-83
2023/03/24 02:59:36;;;;;;;5.35;2.63;;;;;;;;;;4955788;28;20502;-86
2023/03/24 03:02:08;;;;;;;4.53;2.35;;;;;;;;;;4951755;28;20050;-84
2023/03/24 03:04:48;;;;;;;6.95;2.40;;;;;;;;;;4973285;28;20035;-85
2023/03/24 03:07:20;;;;;;;5.55;2.38;;;;;;;;;;4972451;28;20078;-86
2023/03/24 03:09:54;;;;;;;5.57;2.75;;;;;;;;;;4971019;28;20030;-87
2023/03/24 03:12:23;;;;;;;5.60;2.58;;;;;;;;;;4955667;28;20036;-86
2023/03/24 03:15:13;;;;;;;3.83;2.55;;;;;;;;;;4970936;28;20041;-87
2023/03/24 03:17:42;;;;;;;4.35;2.42;;;;;;;;;;4970855;28;20509;-85
2023/03/24 03:20:14;;;;;;;2.92;2.17;;;;;;;;;;4972939;28;20027;-84
2023/03/24 03:22:55;;;;;;;6.05;2.70;;;;;;;;;;4980559;28;20042;-84
2023/03/24 03:25:26;;;;;;;4.10;2.65;;;;;;;;;;4970178;28;20045;-84
2023/03/24 03:27:55;;;;;;;3.42;2.38;;;;;;;;;;4973954;28;20062;-85
2023/03/24 03:30:27;;;;;;;4.47;2.63;;;;;;;;;;4972372;28;20027;-84
2023/03/24 03:32:59;;;;;;;8.88;2.60;;;;;;;;;;4970996;28;20126;-84
2023/03/24 03:35:27;;;;;;;5.18;2.65;;;;;;;;;;4973203;28;20038;-84
2023/03/24 03:37:59;;;;;;;3.95;2.50;;;;;;;;;;4970358;28;20038;-84
2023/03/24 03:40:35;;;;;;;4.13;2.50;;;;;;;;;;4955697;28;20031;-86
2023/03/24 03:43:08;;;;;;;4.78;2.65;;;;;;;;;;4973920;28;20031;-84
2023/03/24 03:45:34;;;;;;;5.93;2.70;;;;;;;;;;4960477;28;20043;-85
2023/03/24 03:48:00;;;;;;;3.17;2.42;;;;;;;;;;4973531;28;20054;-85
2023/03/24 03:50:27;;;;;;;4.45;2.60;;;;;;;;;;4972039;28;20026;-84
2023/03/24 03:52:53;;;;;;;6.70;2.60;;;;;;;;;;4949646;28;20435;-85
2023/03/24 03:55:19;;;;;;;4.22;2.67;;;;;;;;;;4972429;28;20088;-85
2023/03/24 03:57:45;;;;;;;3.90;2.40;;;;;;;;;;4940572;28;20030;-84
2023/03/24 04:00:19;;;;;;;3.45;2.47;;;;;;;;;;4954099;28;20050;-84
2023/03/24 04:03:26;;;;;;;6.45;2.40;;;;;;;;;;4954947;28;20034;-85
2023/03/24 04:06:12;;;;;;;6.47;2.47;;;;;;;;;;4956186;28;20077;-85
2023/03/24 04:08:51;;;;;;;6.75;2.72;;;;;;;;;;4926798;28;20046;-85
2023/03/24 04:11:24;;;;;;;6.05;2.65;;;;;;;;;;4971199;28;20042;-85
2023/03/24 04:14:37;;;;;;;4.57;2.58;;;;;;;;;;4972489;28;20125;-83
2023/03/24 04:17:34;;;;;;;4.57;2.38;;;;;;;;;;4952121;28;20073;-85
2023/03/24 04:20:11;;;;;;;6.20;2.40;;;;;;;;;;4939664;28;20030;-85
2023/03/24 04:22:52;;;;;;;3.80;2.70;;;;;;;;;;4950645;28;20097;-85
2023/03/24 04:25:43;;;;;;;4.53;2.80;;;;;;;;;;4938080;28;20483;-86
2023/03/24 04:28:15;;;;;;;3.97;2.60;;;;;;;;;;4954921;28;20093;-85
2023/03/24 04:30:42;;;;;;;6.47;3.00;;;;;;;;;;4970969;28;20038;-84
2023/03/24 04:33:42;;;;;;;5.57;2.83;;;;;;;;;;4954760;28;20031;-85
2023/03/24 04:36:26;;;;;;;4.50;2.60;;;;;;;;;;4964869;28;20043;-84
2023/03/24 04:39:16;;;;;;;7.20;2.75;;;;;;;;;;4971324;28;20038;-85
2023/03/24 04:41:48;;;;;;;3.20;2.40;;;;;;;;;;4948500;28;20027;-84
2023/03/24 04:44:22;;;;;;;;;;;;;;;;;;4960035;28;20042;-84
2023/03/24 04:47:07;;;;;;;5.40;3.20;;;;;;;;;;4971804;28;19917;-85
2023/03/24 04:49:38;;;;;;;5.97;2.97;;;;;;;;;;4940396;28;20078;-85
2023/03/24 04:52:05;;;;;;;11.15;2.92;;;;;;;;;;4971703;28;20026;-85
2023/03/24 04:54:33;;;;;;;3.70;2.65;;;;;;;;;;4973654;28;20030;-85
2023/03/24 04:57:04;;;;;;;9.43;2.90;;;;;;;;;;4941286;28;20031;-84
2023/03/24 04:59:39;;;;;;;4.65;2.80;;;;;;;;;;4951971;28;20037;-86
2023/03/24 05:02:05;;;;;;;4.85;3.05;;;;;;;;;;4952091;28;20031;-82
2023/03/24 05:04:39;;;;;;;4.63;2.80;;;;;;;;;;5017371;23;20053;-82
2023/03/24 05:07:16;;;;;;;5.75;2.95;;;;;;;;;;5000818;28;20034;-83
2023/03/24 05:09:43;;;;;;;5.78;2.92;;;;;;;;;;5001523;28;20475;-81
2023/03/24 05:12:09;;;;;;;6.82;3.10;;;;;;;;;;5014087;28;20037;-81
2023/03/24 05:14:54;;;;;;;7.40;2.80;;;;;;;;;;4996312;28;20498;-81
2023/03/24 05:17:20;;;;;;;4.78;2.78;;;;;;;;;;4998690;28;20069;-81
2023/03/24 05:19:45;;;;;;;4.78;3.10;;;;;;;;;;4981854;28;20129;-80
2023/03/24 05:22:11;;;;;;;4.47;2.80;;;;;;;;;;4983801;28;20078;-81
2023/03/24 05:24:36;;;;;;;5.22;3.05;;;;;;;;;;4997904;28;20035;-83
2023/03/24 05:27:02;;;;;;;5.45;2.78;;;;;;;;;;4981210;28;20491;-82
2023/03/24 05:29:28;;;;;;;7.70;3.10;;;;;;;;;;4980822;28;20093;-84
2023/03/24 05:31:55;;;;;;;9.63;3.00;;;;;;;;;;4981102;28;20070;-82
2023/03/24 05:34:21;;;;;;;7.88;2.63;;;;;;;;;;4997854;28;20046;-81
2023/03/24 05:37:08;;;;;;;5.85;3.28;;;;;;;;;;4996628;28;20038;-81
2023/03/24 05:39:34;;;;;;;9.52;3.40;;;;;;;;;;4982444;28;20042;-81
2023/03/24 05:42:10;;;;;;;6.18;3.35;;;;;;;;;;4977892;28;20031;-81
2023/03/24 05:44:35;;;;;;;7.10;3.42;;;;;;;;;;4997802;28;20039;-81
2023/03/24 05:47:07;;;;;;;7.25;3.60;;;;;;;;;;4982563;28;20026;-81
2023/03/24 05:49:32;;;;;;;7.75;3.90;;;;;;;;;;4980142;28;20037;-81
2023/03/24 05:51:59;;;;;;;7.38;3.75;;;;;;;;;;4998358;28;20038;-83
2023/03/24 05:54:25;;;;;;;5.28;3.40;;;;;;;;;;4992592;28;20065;-81
2023/03/24 05:56:59;;;;;;;7.20;3.90;;;;;;;;;;5011830;28;20042;-82
2023/03/24 05:59:25;;;;;;;7.32;3.75;;;;;;;;;;4996952;28;20039;-80
2023/03/24 06:01:52;;;;;;;7.85;3.42;;;;;;;;;;4996616;28;20043;-81
2023/03/24 06:04:47;;;;;;;7.90;3.80;;;;;;;;;;4999052;28;20031;-82
2023/03/24 06:07:15;;;;;;;5.15;3.88;;;;;;;;;;5007353;28;20045;-82
2023/03/24 06:09:46;;;;;;;6.35;4.10;;;;;;;;;;4998400;28;20070;-80
2023/03/24 06:12:14;;;;;;;10.43;5.53;;;;;;;;;;4999346;28;20034;-82
2023/03/24 06:14:48;;;;;;;9.23;4.53;;;;;;;;;;4997784;28;20099;-82
2023/03/24 06:17:16;;;;;;;7.05;3.30;;;;;;;;;;4996559;28;20039;-83
2023/03/24 06:19:48;;;;;;;4.70;3.33;;;;;;;;;;5001325;28;20034;-83
2023/03/24 06:22:46;;;;;;;4.68;3.25;;;;;;;;;;4975572;28;20038;-82
2023/03/24 06:25:19;;;;;;;4.95;3.22;;;;;;;;;;5004420;28;20027;-82
2023/03/24 06:27:54;;;;;;;7.43;3.47;;;;;;;;;;5003573;28;20033;-82
2023/03/24 06:30:22;;;;;;;7.05;3.53;;;;;;;;;;4988928;28;20067;-83
2023/03/24 06:32:49;;;;;;;9.13;3.92;;;;;;;;;;4988800;28;20099;-83
2023/03/24 06:35:16;;;;;;;6.90;3.95;;;;;;;;;;4987377;28;20031;-81
2023/03/24 06:37:50;;;;;;;12.20;4.47;;;;;;;;;;5001523;28;20050;-82
2023/03/24 06:40:16;;;;;;;8.30;4.35;;;;;;;;;;4987517;28;20033;-82
2023/03/24 06:42:49;;;;;;;6.47;3.70;;;;;;;;;;5003810;28;20101;-83
2023/03/24 06:45:15;;;;;;;7.88;4.07;;;;;;;;;;5002998;28;20046;-82
2023/03/24 06:47:41;;;;;;;6.05;3.78;;;;;;;;;;4998757;28;20034;-83
2023/03/24 06:50:07;;;;;;;6.47;3.58;;;;;;;;;;5003403;28;20026;-81
2023/03/24 06:52:34;;;;;;;5.28;3.10;;;;;;;;;;5003279;28;20042;-82
2023/03/24 06:55:00;;;;;;;5.80;3.20;;;;;;;;;;5002322;28;20050;-81
2023/03/24 06:57:27;;;;;;;4.63;3.38;;;;;;;;;;4995779;28;20031;-84
2023/03/24 07:00:29;;;;;;;6.95;3.50;;;;;;;;;;4982248;28;20078;-83
2023/03/24 07:03:17;;;;;;;5.65;3.38;;;;;;;;;;4975138;28;20046;-83
2023/03/24 07:06:00;;;;;;;4.63;2.92;;;;;;;;;;5003237;28;20102;-83
2023/03/24 07:08:26;;;;;;;6.75;3.42;;;;;;;;;;4987296;28;20038;-81
2023/03/24 07:10:56;;;;;;;6.03;3.75;;;;;;;;;;4989705;28;20041;-82
2023/03/24 07:13:22;;;;;;;4.45;3.10;;;;;;;;;;5004097;28;20039;-82
2023/03/24 07:15:48;;;;;;;7.90;3.20;;;;;;;;;;4987767;28;20034;-81
2023/03/24 07:18:14;;;;;;;6.47;3.40;;;;;;;;;;4987713;28;20103;-81
2023/03/24 07:20:42;;;;;;;6.45;3.05;;;;;;;;;;5002986;28;20030;-81
2023/03/24 07:23:13;;;;;;;4.35;2.88;;;;;;;;;;5001523;28;20407;-81
2023/03/24 07:25:44;;;;;;;3.53;2.70;;;;;;;;;;4987481;28;20122;-81
2023/03/24 07:28:30;;;;;;;7.22;3.25;;;;;;;;;;4984452;28;20039;-81
2023/03/24 07:30:56;;;;;;;4.13;3.15;;;;;;;;;;4995474;28;20083;-81
2023/03/24 07:33:23;;;;;;;5.30;3.08;;;;;;;;;;5001664;28;20121;-79
2023/03/24 07:35:53;;;;;;;6.05;2.75;;;;;;;;;;5000663;28;20107;-81
2023/03/24 07:38:19;;;;;;;6.60;3.30;;;;;;;;;;5002526;28;20030;-81
2023/03/24 07:40:48;;;;;;;5.78;3.40;;;;;;;;;;5002753;28;20035;-79
2023/03/24 07:43:14;;;;;;;5.65;3.30;;;;;;;;;;4986005;28;20101;-81
2023/03/24 07:46:15;;;;;;;4.28;2.80;;;;;;;;;;4946306;29;20048;-80
2023/03/24 07:48:41;;;;;;;4.95;3.00;;;;;;;;;;4973915;28;20123;-81
2023/03/24 07:51:07;;;;;;;6.25;3.00;;;;;;;;;;5001471;28;20043;-81
2023/03/24 07:53:55;;;;;;;5.53;2.97;;;;;;;;;;4987587;28;20054;-82
2023/03/24 07:56:41;;;;;;;6.88;2.70;;;;;;;;;;4985307;28;20089;-82
2023/03/24 07:59:08;;;;;;;7.93;2.78;;;;;;;;;;5001012;28;20031;-81
2023/03/24 08:01:49;;;;;;;5.20;2.78;;;;;;;;;;4985338;28;20140;-81
2023/03/24 08:04:18;;;;;;;7.50;3.00;;;;;;;;;;5001152;28;20501;-82
2023/03/24 08:07:04;;;;;;;6.45;3.90;;;;;;;;;;4987295;28;20111;-82
2023/03/24 08:09:29;;;;;;;5.80;3.80;;;;;;;;;;4987052;28;20093;-82
2023/03/24 08:11:55;;;;;;;4.85;3.33;;;;;;;;;;4985110;28;20122;-85
2023/03/24 08:14:20;;;;;;;9.63;4.13;;;;;;;;;;4976851;28;20035;-83
2023/03/24 08:16:46;;;;;;;13.20;5.72;;;;;;;;;;4974877;28;20043;-84
2023/03/24 08:19:11;;;;;;;8.07;4.00;;;;;;;;;;4975932;28;20027;-84
2023/03/24 08:21:37;;;;;;;9.63;5.88;;;;;;;;;;4986210;28;20035;-84
2023/03/24 08:24:02;;;;;;;8.85;3.70;;;;;;;;;;4993750;28;20049;-83
2023/03/24 08:26:28;;;;;;;6.55;4.65;;;;;;;;;;4980523;28;20495;-85
2023/03/24 08:28:53;;;;;;;4.75;3.20;;;;;;;;;;4982928;28;20039;-84
2023/03/24 08:31:19;;;;;;;5.72;3.80;;;;;;;;;;4993080;28;20049;-83
2023/03/24 08:33:44;;;;;;;6.40;3.83;;;;;;;;;;4983318;28;20035;-83
2023/03/24 08:36:10;;;;;;;6.78;3.67;;;;;;;;;;4985476;28;20655;-84
2023/03/24 08:38:37;;;;;;;5.70;4.05;;;;;;;;;;4989625;28;20030;-86
2023/03/24 08:41:05;;;;;;;6.40;3.80;;;;;;;;;;4986818;28;20050;-82
2023/03/24 08:43:32;;;;;;;7.10;3.80;;;;;;;;;;4989244;28;20110;-82
2023/03/24 08:45:59;;;;;;;6.13;3.67;;;;;;;;;;4984872;28;20436;-81
2023/03/24 08:48:25;;;;;;;6.07;3.08;;;;;;;;;;4987631;28;20104;-82
2023/03/24 08:50:50;;;;;;;6.82;3.30;;;;;;;;;;4987981;28;20038;-84
2023/03/24 08:53:16;;;;;;;5.28;3.42;;;;;;;;;;5003351;28;20087;-84
2023/03/24 08:55:43;;;;;;;6.72;3.67;;;;;;;;;;5002940;28;20046;-85
2023/03/24 08:58:13;;;;;;;6.45;3.60;;;;;;;;;;4987702;28;20118;-84
2023/03/24 09:00:39;;;;;;;5.50;3.35;;;;;;;;;;4988948;28;20038;-83
2023/03/24 09:03:05;;;;;;;5.43;3.35;;;;;;;;;;4986225;28;20173;-85
2023/03/24 09:05:31;;;;;;;5.93;3.35;;;;;;;;;;5000766;28;20046;-84
2023/03/24 09:07:59;;;;;;;5.20;3.25;;;;;;;;;;4988339;28;20042;-84
2023/03/24 09:10:25;;;;;;;6.93;3.33;;;;;;;;;;4986296;28;20043;-84
2023/03/24 09:12:51;;;;;;;5.10;3.20;;;;;;;;;;4984686;28;20062;-85
2023/03/24 09:15:16;;;;;;;6.43;3.53;;;;;;;;;;4987263;28;20066;-84
2023/03/24 09:17:42;;;;;;;5.35;3.55;;;;;;;;;;4987157;28;20042;-84
2023/03/24 09:20:11;;;;;;;6.85;3.33;;;;;;;;;;5001695;28;20030;-85
2023/03/24 09:22:41;;;;;;;6.65;3.90;;;;;;;;;;5002450;28;20041;-85
2023/03/24 09:25:09;;;;;;;8.90;5.20;;;;;;;;;;4985292;28;20043;-85
2023/03/24 09:27:34;;;;;;;8.10;5.07;;;;;;;;;;4984691;28;20058;-85
2023/03/24 09:30:00;;;;;;;8.73;5.30;;;;;;;;;;4986210;28;20038;-85
2023/03/24 09:32:26;;;;;;;7.55;5.35;;;;;;;;;;4986456;28;20082;-83
2023/03/24 09:34:51;;;;;;;6.85;5.03;;;;;;;;;;4986252;28;20062;-84
2023/03/24 09:37:16;;;;;;;9.70;5.47;;;;;;;;;;5000914;28;20039;-84
2023/03/24 09:39:42;;;;;;;8.60;5.18;;;;;;;;;;4986810;28;20046;-83
2023/03/24 09:42:19;;;;;;;10.32;5.20;;;;;;;;;;4986345;28;20459;-83
2023/03/24 09:44:46;;;;;;;7.95;5.18;;;;;;;;;;4980477;28;20055;-84
2023/03/24 09:47:20;;;;;;;8.77;5.70;;;;;;;;;;4982647;28;20096;-83
2023/03/24 09:49:47;;;;;;;;;;;;;;;;;;4984059;28;20035;-84
2023/03/24 09:52:18;;;;;;;8.00;5.38;;;;;;;;;;4982770;28;19945;-83
2023/03/24 09:54:47;;;;;;;11.90;5.88;;;;;;;;;;5001827;28;20118;-84
2023/03/24 09:57:22;;;;;;;13.73;5.97;;;;;;;;;;4989597;28;20050;-84
2023/03/24 09:59:47;;;;;;;12.25;6.03;;;;;;;;;;4985643;28;20038;-84
2023/03/24 10:02:15;;;;;;;11.48;6.18;;;;;;;;;;4986577;28;20455;-86
2023/03/24 10:04:41;;;;;;;9.98;6.05;;;;;;;;;;4980320;28;20035;-84
2023/03/24 10:07:13;;;;;;;8.43;5.55;;;;;;;;;;4987832;28;20049;-84
2023/03/24 10:09:38;;;;;;;11.02;6.00;;;;;;;;;;4993609;28;20027;-84
2023/03/24 10:12:10;;;;;;;8.15;5.90;;;;;;;;;;4971629;28;20519;-84
2023/03/24 10:14:43;;;;;;;11.27;5.60;;;;;;;;;;4982462;28;20121;-84
2023/03/24 10:17:24;;;;;;;8.48;5.93;;;;;;;;;;4982976;28;20035;-84
2023/03/24 10:20:14;;;;;;;10.63;5.70;;;;;;;;;;4986076;28;20038;-84
2023/03/24 10:23:02;;;;;;;8.00;5.40;;;;;;;;;;4954089;28;20043;-85
2023/03/24 10:25:52;;;;;;;7.80;5.57;;;;;;;;;;5001892;28;20562;-85
2023/03/24 10:28:48;;;;;;;6.80;5.28;;;;;;;;;;4985570;28;20425;-84
2023/03/24 10:31:16;;;;;;;8.25;5.38;;;;;;;;;;4956948;28;20049;-83
2023/03/24 10:33:43;;;;;;;7.28;5.30;;;;;;;;;;4984500;28;20039;-85
2023/03/24 10:36:20;;;;;;;8.35;4.82;;;;;;;;;;4972099;28;20046;-85
2023/03/24 10:38:46;;;;;;;6.43;4.50;;;;;;;;;;4980525;28;20023;-85
2023/03/24 10:41:23;;;;;;;5.70;4.57;;;;;;;;;;4988249;28;20042;-83
2023/03/24 10:43:50;;;;;;;9.63;3.72;;;;;;;;;;5002132;28;20102;-84
2023/03/24 10:46:21;;;;;;;5.13;3.40;;;;;;;;;;4988798;28;20046;-86
2023/03/24 10:48:48;;;;;;;5.00;3.10;;;;;;;;;;4994990;28;20046;-86
2023/03/24 10:51:25;;;;;;;4.85;3.40;;;;;;;;;;5011339;28;20033;-86
2023/03/24 10:54:09;;;;;;;5.45;3.13;;;;;;;;;;4994592;28;20038;-85
2023/03/24 10:56:38;;;;;;;6.65;3.20;;;;;;;;;;4996273;28;20035;-85
2023/03/24 10:59:17;;;;;;;4.55;3.30;;;;;;;;;;5007530;28;20027;-85
2023/03/24 11:01:43;;;;;;;4.80;3.50;;;;;;;;;;4996994;28;20026;-86
2023/03/24 11:04:17;;;;;;;5.00;3.33;;;;;;;;;;5010114;28;20037;-85
2023/03/24 11:07:00;;;;;;;5.45;3.30;;;;;;;;;;5005769;23;20103;-85
2023/03/24 11:09:25;;;;;;;6.00;3.70;;;;;;;;;;4994410;28;20564;-83
2023/03/24 11:11:52;;;;;;;6.05;3.60;;;;;;;;;;4996071;28;20065;-84
2023/03/24 11:14:24;;;;;;;6.32;3.55;;;;;;;;;;5010098;28;20038;-83
2023/03/24 11:16:51;;;;;;;5.90;3.90;;;;;;;;;;5007358;28;20037;-83
2023/03/24 11:19:20;;;;;;;5.30;3.67;;;;;;;;;;4996391;28;20023;-84
2023/03/24 11:21:46;;;;;;;5.97;3.80;;;;;;;;;;4994528;28;20483;-87
2023/03/24 11:24:15;;;;;;;6.00;3.70;;;;;;;;;;4994603;28;20077;-85
2023/03/24 11:26:49;;;;;;;4.75;3.90;;;;;;;;;;4997494;28;20034;-84
2023/03/24 11:29:18;;;;;;;5.93;4.20;;;;;;;;;;4993053;28;20034;-84
2023/03/24 11:31:52;;;;;;;6.50;4.30;;;;;;;;;;4979190;28;20089;-85
2023/03/24 11:34:25;;;;;;;9.07;4.60;;;;;;;;;;4999609;28;20517;-85
2023/03/24 11:37:01;;;;;;;7.55;4.65;;;;;;;;;;4974925;28;20407;-84
2023/03/24 11:39:30;;;;;;;13.23;5.53;;;;;;;;;;4984524;28;20030;-85
2023/03/24 11:42:15;;;;;;;8.05;4.57;;;;;;;;;;5002523;28;20050;-84
2023/03/24 11:44:48;;;;;;;6.80;4.85;;;;;;;;;;5004335;28;20479;-82
2023/03/24 11:47:36;;;;;;;9.63;5.10;;;;;;;;;;4990197;28;20038;-81
2023/03/24 11:50:07;;;;;;;8.90;4.88;;;;;;;;;;4990290;28;20042;-81
2023/03/24 11:52:58;;;;;;;7.82;4.90;;;;;;;;;;4970891;28;20031;-81
2023/03/24 11:55:35;;;;;;;7.70;4.30;;;;;;;;;;4978002;28;20105;-83
2023/03/24 11:58:10;;;;;;;5.10;4.25;;;;;;;;;;4976940;28;20603;-83
2023/03/24 12:00:46;;;;;;;8.45;4.38;;;;;;;;;;4992916;28;20038;-84
2023/03/24 12:03:23;;;;;;;5.40;3.80;;;;;;;;;;4995287;28;20073;-83
2023/03/24 12:06:15;;;;;;;7.63;4.10;;;;;;;;;;4980450;28;20136;-86
2023/03/24 12:08:57;;;;;;;6.85;4.22;;;;;;;;;;4956917;28;20047;-86
2023/03/24 12:11:41;;;;;;;6.53;4.25;;;;;;;;;;4969815;28;20395;-85
2023/03/24 12:14:08;;;;;;;5.60;3.80;;;;;;;;;;4999803;28;20039;-85
2023/03/24 12:17:07;;;;;;;7.15;4.03;;;;;;;;;;4998863;28;20022;-87
2023/03/24 12:19:38;;;;;;;5.43;3.78;;;;;;;;;;4997101;28;20054;-84
2023/03/24 12:22:30;;;;;;;6.30;4.13;;;;;;;;;;4999333;28;20043;-85
2023/03/24 12:24:59;;;;;;;6.88;4.65;;;;;;;;;;4950313;28;20054;-85
2023/03/24 12:27:42;;;;;;;5.80;4.05;;;;;;;;;;4991354;28;20073;-86
2023/03/24 12:30:28;;;;;;;5.85;4.03;;;;;;;;;;5000041;28;20046;-84
2023/03/24 12:33:22;;;;;;;4.53;3.83;;;;;;;;;;5000084;28;20044;-85
2023/03/24 12:36:06;;;;;;;;;;;;;;;;;;4999076;28;20042;-83
2023/03/24 12:38:52;;;;;;;4.97;4.00;;;;;;;;;;5001626;28;19986;-84
2023/03/24 12:41:40;;;;;;;6.38;4.60;;;;;;;;;;4969172;28;20042;-84
2023/03/24 12:44:24;;;;;;;6.07;3.97;;;;;;;;;;5002622;28;20038;-83
2023/03/24 12:47:13;;;;;;;5.55;3.90;;;;;;;;;;4989556;28;20053;-84
2023/03/24 12:50:00;;;;;;;4.82;3.75;;;;;;;;;;4993455;28;20169;-84
2023/03/24 12:52:44;;;;;;;7.10;4.10;;;;;;;;;;4994957;28;20050;-85
2023/03/24 12:55:30;;;;;;;7.05;4.68;;;;;;;;;;4995651;28;20053;-84
2023/03/24 12:58:01;;;;;;;6.78;4.72;;;;;;;;;;4990664;28;20054;-85
2023/03/24 13:00:31;;;;;;;8.05;5.00;;;;;;;;;;4999198;28;20038;-85
2023/03/24 13:03:00;;;;;;;7.47;5.07;;;;;;;;;;4993586;28;20468;-85
2023/03/24 13:05:34;;;;;;;6.63;4.65;;;;;;;;;;4970234;28;20505;-84
2023/03/24 13:08:03;;;;;;;5.40;4.00;;;;;;;;;;4998054;28;20102;-85
2023/03/24 13:10:39;;;;;;;5.03;4.00;;;;;;;;;;4978530;28;20042;-84
2023/03/24 13:13:22;;;;;;;5.18;4.15;;;;;;;;;;4996699;28;20062;-85
2023/03/24 13:15:55;;;;;;;5.80;4.15;;;;;;;;;;4977781;28;20406;-84
2023/03/24 13:18:33;;;;;;;7.32;4.10;;;;;;;;;;4998640;28;20038;-84
2023/03/24 13:21:13;;;;;;;6.88;4.28;;;;;;;;;;4991883;28;20065;-85
2023/03/24 13:23:56;;;;;;;6.88;5.30;;;;;;;;;;4995722;28;20096;-84
2023/03/24 13:26:25;;;;;;;7.70;5.22;;;;;;;;;;5000265;28;20038;-85
2023/03/24 13:28:59;;;;;;;7.93;4.43;;;;;;;;;;5000435;28;20030;-85
2023/03/24 13:31:29;;;;;;;7.72;4.38;;;;;;;;;;4999721;28;20048;-85
2023/03/24 13:33:55;;;;;;;5.38;4.15;;;;;;;;;;4996354;28;20077;-85
2023/03/24 13:36:26;;;;;;;5.70;4.00;;;;;;;;;;4994490;28;20026;-86
2023/03/24 13:38:56;;;;;;;6.65;4.70;;;;;;;;;;4999618;28;20113;-85
2023/03/24 13:41:26;;;;;;;5.78;4.32;;;;;;;;;;5001072;28;20042;-86
2023/03/24 13:44:00;;;;;;;6.07;4.20;;;;;;;;;;4987898;28;20040;-84
2023/03/24 13:46:25;;;;;;;6.78;4.28;;;;;;;;;;4991999;28;20031;-86
2023/03/24 13:48:55;;;;;;;6.03;4.57;;;;;;;;;;4990579;28;20038;-85
2023/03/24 13:51:31;;;;;;;6.57;4.80;;;;;;;;;;4996788;28;20064;-86
2023/03/24 13:54:08;;;;;;;6.50;4.40;;;;;;;;;;4976256;28;20046;-84
2023/03/24 13:56:46;;;;;;;5.45;4.13;;;;;;;;;;4965857;28;20069;-85
2023/03/24 13:59:40;;;;;;;6.85;4.10;;;;;;;;;;4978881;28;20038;-84
2023/03/24 14:02:27;;;;;;;5.75;4.13;;;;;;;;;;4977471;28;20050;-83
2023/03/24 14:05:09;;;;;;;5.65;4.07;;;;;;;;;;4975404;28;20042;-83
2023/03/24 14:07:37;;;;;;;6.13;4.20;;;;;;;;;;4994560;28;20045;-84
2023/03/24 14:10:15;;;;;;;5.53;4.25;;;;;;;;;;4995437;28;20038;-84
2023/03/24 14:12:59;;;;;;;8.57;4.72;;;;;;;;;;4993715;28;20034;-84
2023/03/24 14:15:31;;;;;;;;;;;;;;;;;;4970114;28;20443;-85
2023/03/24 14:18:22;;;;;;;7.65;5.53;;;;;;;;;;4994670;28;19924;-86
2023/03/24 14:20:56;;;;;;;6.53;5.00;;;;;;;;;;4999711;28;20050;-84
2023/03/24 14:23:36;;;;;;;6.10;4.45;;;;;;;;;;4998575;28;20069;-85
2023/03/24 14:26:03;;;;;;;7.53;5.20;;;;;;;;;;4969589;28;20046;-85
2023/03/24 14:28:40;;;;;;;6.28;4.70;;;;;;;;;;4974540;28;20033;-84
2023/03/24 14:31:17;;;;;;;5.93;4.35;;;;;;;;;;5001994;28;20065;-85
2023/03/24 14:33:51;;;;;;;4.95;4.03;;;;;;;;;;4998333;28;20053;-86
2023/03/24 14:36:25;;;;;;;4.78;3.42;;;;;;;;;;4990037;28;20039;-86
2023/03/24 14:38:51;;;;;;;5.38;3.72;;;;;;;;;;4999761;28;20126;-85
2023/03/24 14:41:30;;;;;;;4.85;3.35;;;;;;;;;;4986655;28;20066;-85
2023/03/24 14:43:59;;;;;;;4.20;3.55;;;;;;;;;;5002887;28;20035;-85
2023/03/24 14:46:33;;;;;;;5.20;3.80;;;;;;;;;;4997841;28;20049;-86
2023/03/24 14:49:05;;;;;;;4.97;3.30;;;;;;;;;;4994529;28;20038;-86
2023/03/24 14:51:50;;;;;;;3.97;2.90;;;;;;;;;;4994914;28;20518;-85
2023/03/24 14:54:40;;;;;;;6.65;4.25;;;;;;;;;;4976726;28;20113;-86
2023/03/24 14:57:07;;;;;;;5.68;3.05;;;;;;;;;;4976134;28;20045;-85
2023/03/24 15:00:05;;;;;;;4.68;3.03;;;;;;;;;;4992616;28;20538;-86
2023/03/24 15:02:36;;;;;;;4.30;3.13;;;;;;;;;;4992995;28;20049;-83
2023/03/24 15:05:33;;;;;;;4.38;2.92;;;;;;;;;;4988902;28;20030;-83
2023/03/24 15:08:00;;;;;;;5.20;3.08;;;;;;;;;;4963515;28;20042;-83
2023/03/24 15:10:30;;;;;;;5.65;3.60;;;;;;;;;;4985914;28;20073;-83
2023/03/24 15:12:56;;;;;;;4.00;2.70;;;;;;;;;;4992246;28;20049;-82
2023/03/24 15:15:22;;;;;;;3.10;2.00;;;;;;;;;;4991649;28;20127;-82
2023/03/24 15:17:50;;;;;;;3.83;2.50;;;;;;;;;;4992891;28;20045;-81
2023/03/24 15:20:27;;;;;;;3.83;2.40;;;;;;;;;;4992976;28;20014;-81
2023/03/24 15:22:54;;;;;;;2.80;2.00;;;;;;;;;;4975358;28;20038;-83